Time,TemperatureF,DewpointF,PressureIn,WindDirection,WindDirectionDegrees,WindSpeedMPH,WindSpeedGustMPH,Humidity,HourlyPrecipIn,Conditions,Clouds,dailyrainin,SoftwareType,DateUTC
2013-01-31 00:01:00,30.0,21.0,30.03,West,264,1.0,-999.0,68,-99.99,,,-99.99,,2013-01-31 06:01:00,
2013-01-31 08:02:00,20.0,18.0,30.06,West,277,0.0,-999.0,90,-99.99,,,-99.99,,2013-01-31 14:02:00,
2013-01-31 08:11:00,20.0,18.0,30.06,West,277,0.0,-999.0,90,-99.99,,,-99.99,,2013-01-31 14:11:00,
2013-01-31 08:22:00,20.0,18.0,30.06,West,277,0.0,-999.0,90,-99.99,,,-99.99,,2013-01-31 14:22:00,
2013-01-31 08:32:00,20.0,18.0,30.06,West,277,0.0,-999.0,90,-99.99,,,-99.99,,2013-01-31 14:32:00,
2013-01-31 08:42:00,20.0,18.0,30.06,West,277,0.0,-999.0,90,-99.99,,,-99.99,,2013-01-31 14:42:00,
2013-01-31 08:52:00,20.0,18.0,30.06,West,277,0.0,-999.0,90,-99.99,,,-99.99,,2013-01-31 14:52:00,
2013-01-31 09:03:00,26.0,22.0,30.07,West,277,1.0,-999.0,86,-99.99,,,-99.99,,2013-01-31 15:03:00,
2013-01-31 09:12:00,26.0,22.0,30.07,West,277,1.0,-999.0,86,-99.99,,,-99.99,,2013-01-31 15:12:00,
2013-01-31 09:22:00,28.0,24.0,30.08,West,277,0.0,-999.0,86,-99.99,,,-99.99,,2013-01-31 15:22:00,
2013-01-31 09:32:00,30.0,25.0,30.08,West,277,0.0,-999.0,80,-99.99,,,-99.99,,2013-01-31 15:32:00,
2013-01-31 09:42:00,30.0,25.0,30.08,West,277,0.0,-999.0,80,-99.99,,,-99.99,,2013-01-31 15:42:00,
2013-01-31 09:51:00,32.0,26.0,30.08,West,277,0.0,-999.0,77,-99.99,,,-99.99,,2013-01-31 15:51:00,
2013-01-31 10:03:00,34.0,27.0,30.08,West,277,0.0,-999.0,74,-99.99,,,-99.99,,2013-01-31 16:03:00,
2013-01-31 10:12:00,34.0,27.0,30.08,West,277,0.0,-999.0,74,-99.99,,,-99.99,,2013-01-31 16:12:00,
2013-01-31 10:22:00,36.0,26.0,30.08,West,277,0.0,-999.0,68,-99.99,,,-99.99,,2013-01-31 16:22:00,
2013-01-31 10:33:00,38.0,27.0,30.07,West,277,0.0,-999.0,64,-99.99,,,-99.99,,2013-01-31 16:33:00,
2013-01-31 10:42:00,38.0,27.0,30.07,West,277,0.0,-999.0,64,-99.99,,,-99.99,,2013-01-31 16:42:00,
2013-01-31 10:51:00,40.0,28.0,30.07,West,277,0.0,-999.0,63,-99.99,,,-99.99,,2013-01-31 16:51:00,
2013-01-31 11:02:00,41.0,26.0,30.08,West,277,1.0,-999.0,54,-99.99,,,-99.99,,2013-01-31 17:02:00,
2013-01-31 11:12:00,41.0,26.0,30.08,West,277,1.0,-999.0,54,-99.99,,,-99.99,,2013-01-31 17:12:00,
2013-01-31 11:23:00,44.0,30.0,30.08,West,277,0.0,-999.0,58,-99.99,,,-99.99,,2013-01-31 17:23:00,
2013-01-31 11:32:00,44.0,28.0,30.07,West,277,1.0,-999.0,54,-99.99,,,-99.99,,2013-01-31 17:32:00,
2013-01-31 11:43:00,44.0,28.0,30.07,West,277,1.0,-999.0,54,-99.99,,,-99.99,,2013-01-31 17:43:00,
2013-01-31 11:53:00,46.0,28.0,30.06,West,277,0.0,-999.0,50,-99.99,,,-99.99,,2013-01-31 17:53:00,
2013-01-31 12:03:00,47.0,29.0,30.06,West,277,0.0,-999.0,50,-99.99,,,-99.99,,2013-01-31 18:03:00,
2013-01-31 12:12:00,48.0,28.0,30.06,NNW,333,3.0,-999.0,45,-99.99,,,-99.99,,2013-01-31 18:12:00,
2013-01-31 12:22:00,48.0,28.0,30.06,NNW,333,3.0,-999.0,45,-99.99,,,-99.99,,2013-01-31 18:22:00,
2013-01-31 12:32:00,48.0,28.0,30.05,NNW,331,2.0,-999.0,46,-99.99,,,-99.99,,2013-01-31 18:32:00,
2013-01-31 12:43:00,48.0,28.0,30.05,NNW,331,2.0,-999.0,46,-99.99,,,-99.99,,2013-01-31 18:43:00,
2013-01-31 12:52:00,49.0,27.0,30.05,West,265,1.0,-999.0,43,-99.99,,,-99.99,,2013-01-31 18:52:00,
2013-01-31 13:02:00,50.0,28.0,30.05,NNW,336,2.0,-999.0,42,-99.99,,,-99.99,,2013-01-31 19:02:00,
2013-01-31 13:12:00,50.0,28.0,30.05,NNW,336,2.0,-999.0,42,-99.99,,,-99.99,,2013-01-31 19:12:00,
2013-01-31 13:22:00,50.0,28.0,30.04,West,265,2.0,-999.0,43,-99.99,,,-99.99,,2013-01-31 19:22:00,
2013-01-31 13:32:00,52.0,30.0,30.04,NW,310,2.0,-999.0,43,-99.99,,,-99.99,,2013-01-31 19:32:00,
2013-01-31 13:42:00,52.0,30.0,30.04,NW,310,2.0,-999.0,43,-99.99,,,-99.99,,2013-01-31 19:42:00,
2013-01-31 13:51:00,52.0,30.0,30.04,WSW,244,5.0,-999.0,42,-99.99,,,-99.99,,2013-01-31 19:51:00,
2013-01-31 14:02:00,53.0,29.0,30.04,NNE,15,5.0,-999.0,39,-99.99,,,-99.99,,2013-01-31 20:02:00,
2013-01-31 14:11:00,53.0,29.0,30.04,NNE,15,5.0,-999.0,39,-99.99,,,-99.99,,2013-01-31 20:11:00,
2013-01-31 14:21:00,52.0,28.0,30.05,NNW,338,6.0,-999.0,40,-99.99,,,-99.99,,2013-01-31 20:21:00,
2013-01-31 14:31:00,52.0,29.0,30.05,NW,312,4.0,-999.0,41,-99.99,,,-99.99,,2013-01-31 20:31:00,
2013-01-31 14:42:00,52.0,29.0,30.05,NW,312,4.0,-999.0,41,-99.99,,,-99.99,,2013-01-31 20:42:00,
2013-01-31 14:52:00,52.0,30.0,30.05,WNW,294,4.0,-999.0,42,-99.99,,,-99.99,,2013-01-31 20:52:00,
2013-01-31 15:02:00,51.0,28.0,30.06,WNW,292,8.0,-999.0,41,-99.99,,,-99.99,,2013-01-31 21:02:00,
2013-01-31 15:12:00,51.0,28.0,30.06,WNW,292,8.0,-999.0,41,-99.99,,,-99.99,,2013-01-31 21:12:00,
2013-01-31 15:22:00,51.0,28.0,30.06,West,266,8.0,-999.0,41,-99.99,,,-99.99,,2013-01-31 21:22:00,
2013-01-31 15:32:00,51.0,29.0,30.08,NW,304,8.0,-999.0,42,-99.99,,,-99.99,,2013-01-31 21:32:00,
2013-01-31 15:42:00,51.0,29.0,30.08,NW,304,8.0,-999.0,42,-99.99,,,-99.99,,2013-01-31 21:42:00,
2013-01-31 15:52:00,50.0,29.0,30.09,NW,324,6.0,-999.0,44,-99.99,,,-99.99,,2013-01-31 21:52:00,
2013-01-31 16:03:00,48.0,28.0,30.09,NW,321,7.0,-999.0,45,-99.99,,,-99.99,,2013-01-31 22:03:00,
2013-01-31 16:11:00,48.0,28.0,30.09,NW,321,7.0,-999.0,45,-99.99,,,-99.99,,2013-01-31 22:11:00,
2013-01-31 16:22:00,46.0,26.0,30.10,NW,308,4.0,-999.0,46,-99.99,,,-99.99,,2013-01-31 22:22:00,
2013-01-31 16:32:00,46.0,28.0,30.13,NW,311,8.0,-999.0,49,-99.99,,,-99.99,,2013-01-31 22:32:00,
2013-01-31 16:42:00,46.0,28.0,30.13,NW,311,8.0,-999.0,49,-99.99,,,-99.99,,2013-01-31 22:42:00,
2013-01-31 16:51:00,46.0,28.0,30.13,NW,311,8.0,-999.0,49,-99.99,,,-99.99,,2013-01-31 22:51:00,
2013-01-31 17:02:00,43.0,27.0,30.18,WNW,299,7.0,-999.0,53,-99.99,,,-99.99,,2013-01-31 23:02:00,
2013-01-31 17:12:00,43.0,27.0,30.18,WNW,299,7.0,-999.0,53,-99.99,,,-99.99,,2013-01-31 23:12:00,
2013-01-31 17:22:00,43.0,27.0,30.18,WNW,299,7.0,-999.0,53,-99.99,,,-99.99,,2013-01-31 23:22:00,
2013-01-31 17:32:00,38.0,26.0,30.22,West,275,6.0,-999.0,62,-99.99,,,-99.99,,2013-01-31 23:32:00,
2013-01-31 17:42:00,38.0,26.0,30.22,West,275,6.0,-999.0,62,-99.99,,,-99.99,,2013-01-31 23:42:00,
2013-01-31 17:52:00,36.0,25.0,30.22,NW,321,6.0,-999.0,63,-99.99,,,-99.99,,2013-01-31 23:52:00,
2013-01-31 18:01:00,34.0,23.0,30.24,NW,313,8.0,-999.0,65,-99.99,,,-99.99,,2013-02-01 00:01:00,
2013-01-31 18:22:00,33.0,23.0,30.24,SW,236,5.0,-999.0,67,-99.99,,,-99.99,,2013-02-01 00:22:00,
2013-01-31 18:32:00,33.0,24.0,30.24,NW,324,4.0,-999.0,70,-99.99,,,-99.99,,2013-02-01 00:32:00,
2013-01-31 18:42:00,33.0,24.0,30.24,NW,324,4.0,-999.0,70,-99.99,,,-99.99,,2013-02-01 00:42:00,
2013-01-31 18:51:00,33.0,24.0,30.24,NW,324,4.0,-999.0,70,-99.99,,,-99.99,,2013-02-01 00:51:00,
2013-01-31 19:01:00,32.0,22.0,30.26,West,261,4.0,-999.0,67,-99.99,,,-99.99,,2013-02-01 01:01:00,
2013-01-31 19:11:00,32.0,23.0,30.29,WNW,286,7.0,-999.0,68,-99.99,,,-99.99,,2013-02-01 01:11:00,
2013-01-31 19:21:00,32.0,23.0,30.29,WNW,286,7.0,-999.0,68,-99.99,,,-99.99,,2013-02-01 01:21:00,
2013-01-31 19:32:00,31.0,21.0,30.29,West,277,6.0,-999.0,66,-99.99,,,-99.99,,2013-02-01 01:32:00,
2013-01-31 19:42:00,31.0,21.0,30.29,West,277,6.0,-999.0,66,-99.99,,,-99.99,,2013-02-01 01:42:00,
2013-01-31 19:52:00,31.0,21.0,30.30,WNW,295,3.0,-999.0,65,-99.99,,,-99.99,,2013-02-01 01:52:00,
2013-01-31 20:02:00,30.0,18.0,30.32,WNW,286,4.0,-999.0,61,-99.99,,,-99.99,,2013-02-01 02:02:00,
2013-01-31 20:11:00,30.0,18.0,30.32,WNW,286,4.0,-999.0,61,-99.99,,,-99.99,,2013-02-01 02:11:00,
2013-01-31 20:21:00,30.0,17.0,30.32,NW,304,5.0,-999.0,59,-99.99,,,-99.99,,2013-02-01 02:21:00,
2013-01-31 20:31:00,29.0,15.0,30.34,West,267,6.0,-999.0,56,-99.99,,,-99.99,,2013-02-01 02:31:00,
2013-01-31 20:41:00,29.0,15.0,30.34,West,267,6.0,-999.0,56,-99.99,,,-99.99,,2013-02-01 02:41:00,
2013-01-31 20:52:00,28.0,13.0,30.35,WNW,292,5.0,-999.0,53,-99.99,,,-99.99,,2013-02-01 02:52:00,
2013-01-31 21:02:00,28.0,13.0,30.36,West,279,5.0,-999.0,52,-99.99,,,-99.99,,2013-02-01 03:02:00,
2013-01-31 21:12:00,28.0,13.0,30.36,West,279,5.0,-999.0,52,-99.99,,,-99.99,,2013-02-01 03:12:00,
2013-01-31 21:21:00,27.0,12.0,30.37,WNW,303,6.0,-999.0,53,-99.99,,,-99.99,,2013-02-01 03:21:00,
2013-01-31 21:32:00,27.0,13.0,30.37,WNW,293,5.0,-999.0,54,-99.99,,,-99.99,,2013-02-01 03:32:00,
2013-01-31 21:42:00,27.0,13.0,30.37,WNW,293,5.0,-999.0,54,-99.99,,,-99.99,,2013-02-01 03:42:00,
2013-01-31 21:51:00,26.0,11.0,30.39,NW,317,3.0,-999.0,52,-99.99,,,-99.99,,2013-02-01 03:51:00,
2013-01-31 22:02:00,26.0,11.0,30.39,NW,308,3.0,-999.0,53,-99.99,,,-99.99,,2013-02-01 04:02:00,
2013-01-31 22:11:00,26.0,11.0,30.39,NW,308,3.0,-999.0,53,-99.99,,,-99.99,,2013-02-01 04:11:00,
2013-01-31 22:21:00,26.0,11.0,30.40,West,275,4.0,-999.0,53,-99.99,,,-99.99,,2013-02-01 04:21:00,
2013-01-31 22:32:00,25.0,10.0,30.41,WNW,300,6.0,-999.0,52,-99.99,,,-99.99,,2013-02-01 04:32:00,
2013-01-31 22:41:00,25.0,10.0,30.41,WNW,300,6.0,-999.0,52,-99.99,,,-99.99,,2013-02-01 04:41:00,
2013-01-31 22:51:00,25.0,10.0,30.41,WNW,286,4.0,-999.0,53,-99.99,,,-99.99,,2013-02-01 04:51:00,
2013-01-31 23:03:00,25.0,11.0,30.41,WNW,282,5.0,-999.0,54,-99.99,,,-99.99,,2013-02-01 05:03:00,
2013-01-31 23:11:00,25.0,11.0,30.41,WNW,282,5.0,-999.0,54,-99.99,,,-99.99,,2013-02-01 05:11:00,
2013-01-31 23:22:00,24.0,10.0,30.42,WNW,300,6.0,-999.0,54,-99.99,,,-99.99,,2013-02-01 05:22:00,
2013-01-31 23:32:00,24.0,9.0,30.41,West,276,6.0,-999.0,51,-99.99,,,-99.99,,2013-02-01 05:32:00,
2013-01-31 23:42:00,24.0,9.0,30.41,West,276,6.0,-999.0,51,-99.99,,,-99.99,,2013-02-01 05:42:00,
2013-01-31 23:52:00,24.0,8.0,30.41,NW,322,4.0,-999.0,49,-99.99,,,-99.99,,2013-02-01 05:52:00,